Terminal Aerodrome Forecast
Issued by NWS

Home | Current Version | Previous Version | Text Only | Print | Product List | Glossary On
Versions: 1 2 3 4 5 6 7 8 9 10 11 12 13 14
000
FTAK31 PAFA 290534
TAFAOM
TAF
PAOM 290534Z 2906/3006 19005KT P6SM OVC025
     FM291200 22003KT P6SM -RA OVC015
     FM291400 20009KT 2SM -RA BR OVC004
     FM291600 20010KT 1 1/2SM RA BR BKN004 OVC012=

USA.gov is the U.S. government's official web portal to all federal, state and local government web resources and services.